sensor_id;sensor_type;location;lat;lon;timestamp;pressure;altitude;pressure_sealevel;temperature;humidity
9474;BME280;8865;47.636;7.692;2022-07-29T00:01:15;98044.16;;;21.19;100.00
9474;BME280;8865;47.636;7.692;2022-07-29T00:03:41;98036.38;;;21.18;100.00
9474;BME280;8865;47.636;7.692;2022-07-29T00:06:07;98041.28;;;21.14;100.00
9474;BME280;8865;47.636;7.692;2022-07-29T00:08:34;98041.28;;;21.14;100.00
9474;BME280;8865;47.636;7.692;2022-07-29T00:11:00;98050.31;;;21.13;100.00
9474;BME280;8865;47.636;7.692;2022-07-29T00:13:26;98048.66;;;21.12;100.00
9474;BME280;8865;47.636;7.692;2022-07-29T00:15:52;98038.44;;;21.09;100.00
9474;BME280;8865;47.636;7.692;2022-07-29T00:18:18;98027.34;;;20.99;100.00
9474;BME280;8865;47.636;7.692;2022-07-29T00:20:44;98046.19;;;20.97;100.00
9474;BME280;8865;47.636;7.692;2022-07-29T00:23:10;98041.28;;;21.01;100.00
9474;BME280;8865;47.636;7.692;2022-07-29T00:25:37;98038.63;;;21.01;100.00
9474;BME280;8865;47.636;7.692;2022-07-29T00:28:03;98051.53;;;21.04;100.00
9474;BME280;8865;47.636;7.692;2022-07-29T00:30:29;98050.91;;;21.02;100.00
9474;BME280;8865;47.636;7.692;2022-07-29T00:32:55;98052.13;;;20.99;100.00
9474;BME280;8865;47.636;7.692;2022-07-29T00:35:22;98049.06;;;20.96;100.00
9474;BME280;8865;47.636;7.692;2022-07-29T00:38:06;98052.34;;;20.91;100.00
9474;BME280;8865;47.636;7.692;2022-07-29T00:40:32;98056.03;;;20.90;100.00
9474;BME280;8865;47.636;7.692;2022-07-29T00:42:59;98047.22;;;20.83;100.00
9474;BME280;8865;47.636;7.692;2022-07-29T00:45:25;98036.59;;;20.83;100.00
9474;BME280;8865;47.636;7.692;2022-07-29T00:47:51;98039.03;;;20.84;100.00
9474;BME280;8865;47.636;7.692;2022-07-29T00:50:18;98044.16;;;20.86;100.00
9474;BME280;8865;47.636;7.692;2022-07-29T00:52:44;98038.41;;;20.82;100.00
9474;BME280;8865;47.636;7.692;2022-07-29T00:55:14;98032.69;;;20.79;100.00
9474;BME280;8865;47.636;7.692;2022-07-29T00:57:41;98035.34;;;20.79;100.00
9474;BME280;8865;47.636;7.692;2022-07-29T01:00:14;98030.22;;;20.77;100.00
9474;BME280;8865;47.636;7.692;2022-07-29T01:02:41;98027.34;;;20.79;100.00
9474;BME280;8865;47.636;7.692;2022-07-29T01:05:07;98029.59;;;20.82;100.00
9474;BME280;8865;47.636;7.692;2022-07-29T01:07:35;98032.69;;;20.79;100.00
9474;BME280;8865;47.636;7.692;2022-07-29T01:10:03;98026.34;;;20.80;100.00
9474;BME280;8865;47.636;7.692;2022-07-29T01:12:31;98022.84;;;20.79;100.00
9474;BME280;8865;47.636;7.692;2022-07-29T01:15:04;98031.03;;;20.78;100.00
9474;BME280;8865;47.636;7.692;2022-07-29T01:17:49;98031.44;;;20.75;100.00
9474;BME280;8865;47.636;7.692;2022-07-29T01:25:54;98044.06;;;20.59;100.00
9474;BME280;8865;47.636;7.692;2022-07-29T01:31:11;98051.66;;;20.62;100.00
9474;BME280;8865;47.636;7.692;2022-07-29T01:33:43;98046.97;;;20.64;100.00
9474;BME280;8865;47.636;7.692;2022-07-29T01:36:28;98046.13;;;20.64;100.00
9474;BME280;8865;47.636;7.692;2022-07-29T01:39:31;98053.50;;;20.62;100.00
9474;BME280;8865;47.636;7.692;2022-07-29T01:42:20;98058.03;;;20.61;100.00
9474;BME280;8865;47.636;7.692;2022-07-29T01:50:50;98063.16;;;20.69;100.00
9474;BME280;8865;47.636;7.692;2022-07-29T01:53:25;98058.47;;;20.72;100.00
9474;BME280;8865;47.636;7.692;2022-07-29T01:55:53;98065.44;;;20.73;100.00
9474;BME280;8865;47.636;7.692;2022-07-29T01:58:20;98053.78;;;20.74;100.00
9474;BME280;8865;47.636;7.692;2022-07-29T02:00:49;98049.66;;;20.71;100.00
9474;BME280;8865;47.636;7.692;2022-07-29T02:03:17;98049.88;;;20.69;100.00
9474;BME280;8865;47.636;7.692;2022-07-29T02:05:45;98060.50;;;20.69;100.00
9474;BME280;8865;47.636;7.692;2022-07-29T02:08:13;98067.03;;;20.67;100.00
9474;BME280;8865;47.636;7.692;2022-07-29T02:10:42;98084.00;;;20.59;100.00
9474;BME280;8865;47.636;7.692;2022-07-29T02:13:11;98095.22;;;20.48;100.00
9474;BME280;8865;47.636;7.692;2022-07-29T02:15:40;98099.47;;;20.36;100.00
9474;BME280;8865;47.636;7.692;2022-07-29T02:18:12;98098.41;;;20.23;100.00
9474;BME280;8865;47.636;7.692;2022-07-29T02:20:44;98100.41;;;20.14;100.00
9474;BME280;8865;47.636;7.692;2022-07-29T02:23:12;98106.09;;;20.05;100.00
9474;BME280;8865;47.636;7.692;2022-07-29T02:25:41;98103.19;;;19.99;100.00
9474;BME280;8865;47.636;7.692;2022-07-29T02:28:08;98101.97;;;19.95;100.00
9474;BME280;8865;47.636;7.692;2022-07-29T02:30:40;98106.63;;;19.93;100.00
9474;BME280;8865;47.636;7.692;2022-07-29T02:33:08;98101.91;;;19.89;100.00
9474;BME280;8865;47.636;7.692;2022-07-29T02:35:36;98104.97;;;19.86;100.00
9474;BME280;8865;47.636;7.692;2022-07-29T02:38:03;98097.56;;;19.81;100.00
9474;BME280;8865;47.636;7.692;2022-07-29T02:40:50;98093.50;;;19.78;100.00
9474;BME280;8865;47.636;7.692;2022-07-29T02:43:18;98090.34;;;19.75;100.00
9474;BME280;8865;47.636;7.692;2022-07-29T02:45:47;98093.19;;;19.73;100.00
9474;BME280;8865;47.636;7.692;2022-07-29T02:48:20;98097.50;;;19.74;100.00
9474;BME280;8865;47.636;7.692;2022-07-29T02:50:51;98096.06;;;19.72;100.00
9474;BME280;8865;47.636;7.692;2022-07-29T02:53:22;98102.22;;;19.72;100.00
9474;BME280;8865;47.636;7.692;2022-07-29T02:55:57;98104.69;;;19.74;100.00
9474;BME280;8865;47.636;7.692;2022-07-29T02:58:38;98109.69;;;19.90;100.00
9474;BME280;8865;47.636;7.692;2022-07-29T03:01:17;98105.44;;;19.96;100.00
9474;BME280;8865;47.636;7.692;2022-07-29T03:03:46;98100.13;;;19.96;100.00
9474;BME280;8865;47.636;7.692;2022-07-29T03:06:15;98099.09;;;19.97;100.00
9474;BME280;8865;47.636;7.692;2022-07-29T03:08:44;98099.91;;;19.97;100.00
9474;BME280;8865;47.636;7.692;2022-07-29T03:11:12;98110.56;;;19.97;100.00
9474;BME280;8865;47.636;7.692;2022-07-29T03:13:39;98097.25;;;19.97;100.00
9474;BME280;8865;47.636;7.692;2022-07-29T03:16:06;98099.09;;;19.97;100.00
9474;BME280;8865;47.636;7.692;2022-07-29T03:18:33;98102.97;;;19.94;100.00
9474;BME280;8865;47.636;7.692;2022-07-29T03:21:00;98097.03;;;19.92;100.00
9474;BME280;8865;47.636;7.692;2022-07-29T03:23:26;98105.63;;;19.94;100.00
9474;BME280;8865;47.636;7.692;2022-07-29T03:25:54;98105.00;;;19.92;100.00
9474;BME280;8865;47.636;7.692;2022-07-29T03:28:21;98100.91;;;19.90;100.00
9474;BME280;8865;47.636;7.692;2022-07-29T03:30:48;98109.88;;;19.89;100.00
9474;BME280;8865;47.636;7.692;2022-07-29T03:33:14;98103.75;;;19.88;100.00
9474;BME280;8865;47.636;7.692;2022-07-29T03:35:41;98109.06;;;19.88;100.00
9474;BME280;8865;47.636;7.692;2022-07-29T03:38:07;98106.59;;;19.87;100.00
9474;BME280;8865;47.636;7.692;2022-07-29T03:40:37;98108.47;;;19.86;100.00
9474;BME280;8865;47.636;7.692;2022-07-29T03:43:05;98109.84;;;19.82;100.00
9474;BME280;8865;47.636;7.692;2022-07-29T03:45:33;98106.19;;;19.83;100.00
9474;BME280;8865;47.636;7.692;2022-07-29T03:48:08;98102.69;;;19.83;100.00
9474;BME280;8865;47.636;7.692;2022-07-29T03:50:36;98113.31;;;19.83;100.00
9474;BME280;8865;47.636;7.692;2022-07-29T03:53:03;98115.59;;;19.86;100.00
9474;BME280;8865;47.636;7.692;2022-07-29T03:55:33;98118.06;;;19.87;100.00
9474;BME280;8865;47.636;7.692;2022-07-29T03:58:02;98119.47;;;19.83;100.00
9474;BME280;8865;47.636;7.692;2022-07-29T04:00:29;98110.66;;;19.83;100.00
9474;BME280;8865;47.636;7.692;2022-07-29T04:02:56;98107.59;;;19.79;100.00
9474;BME280;8865;47.636;7.692;2022-07-29T04:05:22;98108.19;;;19.81;100.00
9474;BME280;8865;47.636;7.692;2022-07-29T04:07:49;98114.78;;;19.85;100.00
9474;BME280;8865;47.636;7.692;2022-07-29T04:10:15;98117.97;;;19.74;100.00
9474;BME280;8865;47.636;7.692;2022-07-29T04:12:42;98114.03;;;19.70;100.00
9474;BME280;8865;47.636;7.692;2022-07-29T04:15:09;98117.03;;;19.88;100.00
9474;BME280;8865;47.636;7.692;2022-07-29T04:17:35;98112.75;;;19.87;100.00
9474;BME280;8865;47.636;7.692;2022-07-29T04:20:02;98123.16;;;19.89;100.00
9474;BME280;8865;47.636;7.692;2022-07-29T04:22:28;98125.44;;;19.92;100.00
9474;BME280;8865;47.636;7.692;2022-07-29T04:24:54;98121.38;;;19.96;100.00
9474;BME280;8865;47.636;7.692;2022-07-29T04:27:21;98123.22;;;19.95;100.00
9474;BME280;8865;47.636;7.692;2022-07-29T04:29:50;98121.81;;;19.99;100.00
9474;BME280;8865;47.636;7.692;2022-07-29T04:32:16;98127.88;;;19.87;100.00
9474;BME280;8865;47.636;7.692;2022-07-29T04:34:42;98118.53;;;19.97;100.00
9474;BME280;8865;47.636;7.692;2022-07-29T04:37:08;98108.50;;;19.99;100.00
9474;BME280;8865;47.636;7.692;2022-07-29T04:39:34;98114.47;;;20.02;100.00
9474;BME280;8865;47.636;7.692;2022-07-29T04:42:00;98110.16;;;20.01;100.00
9474;BME280;8865;47.636;7.692;2022-07-29T04:44:26;98104.84;;;20.01;100.00
9474;BME280;8865;47.636;7.692;2022-07-29T04:46:53;98106.44;;;19.95;100.00
9474;BME280;8865;47.636;7.692;2022-07-29T04:49:19;98109.97;;;20.02;100.00
9474;BME280;8865;47.636;7.692;2022-07-29T04:51:45;98110.06;;;19.87;100.00
9474;BME280;8865;47.636;7.692;2022-07-29T04:54:11;98116.84;;;19.90;100.00
9474;BME280;8865;47.636;7.692;2022-07-29T04:56:38;98107.94;;;20.04;100.00
9474;BME280;8865;47.636;7.692;2022-07-29T04:59:04;98118.00;;;20.09;100.00
9474;BME280;8865;47.636;7.692;2022-07-29T05:01:30;98112.91;;;20.14;100.00
9474;BME280;8865;47.636;7.692;2022-07-29T05:03:56;98120.69;;;20.22;100.00
9474;BME280;8865;47.636;7.692;2022-07-29T05:06:22;98113.97;;;20.26;100.00
9474;BME280;8865;47.636;7.692;2022-07-29T05:08:48;98119.31;;;20.33;100.00
9474;BME280;8865;47.636;7.692;2022-07-29T05:11:14;98117.31;;;20.42;100.00
9474;BME280;8865;47.636;7.692;2022-07-29T05:13:40;98115.91;;;20.46;100.00
9474;BME280;8865;47.636;7.692;2022-07-29T05:16:08;98108.94;;;20.51;100.00
9474;BME280;8865;47.636;7.692;2022-07-29T05:18:34;98108.31;;;20.43;100.00
9474;BME280;8865;47.636;7.692;2022-07-29T05:21:00;98121.03;;;20.61;100.00
9474;BME280;8865;47.636;7.692;2022-07-29T05:23:26;98107.81;;;20.74;100.00
9474;BME280;8865;47.636;7.692;2022-07-29T05:25:52;98106.81;;;20.82;100.00
9474;BME280;8865;47.636;7.692;2022-07-29T05:28:18;98113.97;;;20.88;100.00
9474;BME280;8865;47.636;7.692;2022-07-29T05:30:45;98112.97;;;20.96;100.00
9474;BME280;8865;47.636;7.692;2022-07-29T05:33:11;98109.69;;;21.00;100.00
9474;BME280;8865;47.636;7.692;2022-07-29T05:35:37;98120.56;;;21.05;100.00
9474;BME280;8865;47.636;7.692;2022-07-29T05:38:03;98116.25;;;21.04;100.00
9474;BME280;8865;47.636;7.692;2022-07-29T05:40:29;98109.28;;;21.03;100.00
9474;BME280;8865;47.636;7.692;2022-07-29T05:42:56;98103.56;;;21.07;100.00
9474;BME280;8865;47.636;7.692;2022-07-29T05:45:22;98108.47;;;21.10;100.00
9474;BME280;8865;47.636;7.692;2022-07-29T05:47:50;98104.78;;;21.17;100.00
9474;BME280;8865;47.636;7.692;2022-07-29T05:50:16;98113.81;;;21.23;100.00
9474;BME280;8865;47.636;7.692;2022-07-29T05:52:42;98113.00;;;21.29;100.00
9474;BME280;8865;47.636;7.692;2022-07-29T05:55:08;98107.25;;;21.32;100.00
9474;BME280;8865;47.636;7.692;2022-07-29T05:57:34;98121.59;;;21.31;100.00
9474;BME280;8865;47.636;7.692;2022-07-29T06:00:01;98123.44;;;21.31;100.00
9474;BME280;8865;47.636;7.692;2022-07-29T06:02:27;98121.00;;;21.29;100.00
9474;BME280;8865;47.636;7.692;2022-07-29T06:04:53;98125.31;;;21.30;100.00
9474;BME280;8865;47.636;7.692;2022-07-29T06:07:19;98128.56;;;21.32;100.00
9474;BME280;8865;47.636;7.692;2022-07-29T06:09:46;98121.41;;;21.33;100.00
9474;BME280;8865;47.636;7.692;2022-07-29T06:12:12;98130.41;;;21.38;100.00
9474;BME280;8865;47.636;7.692;2022-07-29T06:14:38;98122.41;;;21.45;100.00
9474;BME280;8865;47.636;7.692;2022-07-29T06:17:04;98126.34;;;21.56;100.00
9474;BME280;8865;47.636;7.692;2022-07-29T06:19:34;98122.44;;;21.72;100.00
9474;BME280;8865;47.636;7.692;2022-07-29T06:24:25;98129.34;;;21.93;100.00
9474;BME280;8865;47.636;7.692;2022-07-29T06:26:51;98140.41;;;22.03;100.00
9474;BME280;8865;47.636;7.692;2022-07-29T06:29:18;98135.47;;;22.14;100.00
9474;BME280;8865;47.636;7.692;2022-07-29T06:31:44;98141.00;;;22.25;100.00
9474;BME280;8865;47.636;7.692;2022-07-29T06:34:10;98140.97;;;22.32;100.00
9474;BME280;8865;47.636;7.692;2022-07-29T06:36:37;98147.34;;;22.31;100.00
9474;BME280;8865;47.636;7.692;2022-07-29T06:39:08;98150.81;;;22.38;100.00
9474;BME280;8865;47.636;7.692;2022-07-29T06:41:34;98147.72;;;22.41;100.00
9474;BME280;8865;47.636;7.692;2022-07-29T06:44:01;98145.69;;;22.37;100.00
9474;BME280;8865;47.636;7.692;2022-07-29T06:46:27;98154.88;;;22.47;100.00
9474;BME280;8865;47.636;7.692;2022-07-29T06:48:53;98159.41;;;22.47;100.00
9474;BME280;8865;47.636;7.692;2022-07-29T06:51:20;98161.66;;;22.43;100.00
9474;BME280;8865;47.636;7.692;2022-07-29T06:53:46;98165.78;;;22.46;100.00
9474;BME280;8865;47.636;7.692;2022-07-29T06:56:12;98166.19;;;22.43;100.00
9474;BME280;8865;47.636;7.692;2022-07-29T06:58:39;98173.59;;;22.41;100.00
9474;BME280;8865;47.636;7.692;2022-07-29T07:01:06;98180.75;;;22.40;100.00
9474;BME280;8865;47.636;7.692;2022-07-29T07:03:32;98190.03;;;22.38;100.00
9474;BME280;8865;47.636;7.692;2022-07-29T07:05:59;98194.53;;;22.37;100.00
9474;BME280;8865;47.636;7.692;2022-07-29T07:08:25;98203.59;;;22.36;100.00
9474;BME280;8865;47.636;7.692;2022-07-29T07:10:52;98206.47;;;22.35;100.00
9474;BME280;8865;47.636;7.692;2022-07-29T07:13:19;98209.34;;;22.33;100.00
9474;BME280;8865;47.636;7.692;2022-07-29T07:15:46;98220.00;;;22.33;100.00
9474;BME280;8865;47.636;7.692;2022-07-29T07:18:15;98227.59;;;22.36;100.00
9474;BME280;8865;47.636;7.692;2022-07-29T07:20:41;98226.97;;;22.41;100.00
9474;BME280;8865;47.636;7.692;2022-07-29T07:23:07;98231.88;;;22.44;100.00
9474;BME280;8865;47.636;7.692;2022-07-29T07:25:34;98241.31;;;22.46;100.00
9474;BME280;8865;47.636;7.692;2022-07-29T07:28:00;98240.88;;;22.50;100.00
9474;BME280;8865;47.636;7.692;2022-07-29T07:30:26;98244.19;;;22.52;100.00
9474;BME280;8865;47.636;7.692;2022-07-29T07:32:54;98244.16;;;22.58;100.00
9474;BME280;8865;47.636;7.692;2022-07-29T07:35:21;98238.16;;;22.70;100.00
9474;BME280;8865;47.636;7.692;2022-07-29T07:37:47;98233.41;;;22.78;100.00
9474;BME280;8865;47.636;7.692;2022-07-29T07:40:14;98222.34;;;22.75;100.00
9474;BME280;8865;47.636;7.692;2022-07-29T07:42:40;98218.03;;;22.74;100.00
9474;BME280;8865;47.636;7.692;2022-07-29T07:45:07;98223.34;;;22.74;100.00
9474;BME280;8865;47.636;7.692;2022-07-29T07:47:36;98242.84;;;22.74;100.00
9474;BME280;8865;47.636;7.692;2022-07-29T07:50:07;98241.41;;;22.78;100.00
9474;BME280;8865;47.636;7.692;2022-07-29T07:52:34;98241.59;;;22.83;100.00
9474;BME280;8865;47.636;7.692;2022-07-29T07:55:00;98239.94;;;22.89;100.00
9474;BME280;8865;47.636;7.692;2022-07-29T07:57:26;98227.00;;;22.86;100.00
9474;BME280;8865;47.636;7.692;2022-07-29T07:59:53;98225.34;;;22.85;100.00
9474;BME280;8865;47.636;7.692;2022-07-29T08:02:19;98238.47;;;22.93;100.00
9474;BME280;8865;47.636;7.692;2022-07-29T08:04:45;98242.34;;;22.97;100.00
9474;BME280;8865;47.636;7.692;2022-07-29T08:07:11;98238.63;;;23.05;100.00
9474;BME280;8865;47.636;7.692;2022-07-29T08:09:37;98227.94;;;23.12;100.00
9474;BME280;8865;47.636;7.692;2022-07-29T08:12:04;98222.31;;;23.27;100.00
9474;BME280;8865;47.636;7.692;2022-07-29T08:14:32;98230.22;;;23.40;100.00
9474;BME280;8865;47.636;7.692;2022-07-29T08:16:58;98235.66;;;23.59;100.00
9474;BME280;8865;47.636;7.692;2022-07-29T08:19:24;98211.50;;;23.72;100.00
9474;BME280;8865;47.636;7.692;2022-07-29T08:21:51;98207.69;;;23.86;100.00
9474;BME280;8865;47.636;7.692;2022-07-29T08:24:19;98220.06;;;24.06;100.00
9474;BME280;8865;47.636;7.692;2022-07-29T08:27:04;98217.41;;;24.24;100.00
9474;BME280;8865;47.636;7.692;2022-07-29T08:29:30;98208.34;;;24.44;100.00
9474;BME280;8865;47.636;7.692;2022-07-29T08:31:56;98206.44;;;24.70;100.00
9474;BME280;8865;47.636;7.692;2022-07-29T08:34:22;98204.91;;;24.92;100.00
9474;BME280;8865;47.636;7.692;2022-07-29T08:36:49;98207.22;;;25.19;100.00
9474;BME280;8865;47.636;7.692;2022-07-29T08:39:15;98197.16;;;25.33;100.00
9474;BME280;8865;47.636;7.692;2022-07-29T08:41:41;98189.88;;;25.64;100.00
9474;BME280;8865;47.636;7.692;2022-07-29T08:44:07;98191.13;;;25.61;100.00
9474;BME280;8865;47.636;7.692;2022-07-29T08:46:37;98199.91;;;25.80;100.00
9474;BME280;8865;47.636;7.692;2022-07-29T08:49:05;98194.31;;;25.82;100.00
9474;BME280;8865;47.636;7.692;2022-07-29T08:51:33;98187.19;;;25.76;100.00
9474;BME280;8865;47.636;7.692;2022-07-29T08:54:01;98187.31;;;25.81;100.00
9474;BME280;8865;47.636;7.692;2022-07-29T08:56:28;98186.03;;;25.95;100.00
9474;BME280;8865;47.636;7.692;2022-07-29T08:58:58;98179.41;;;25.98;100.00
9474;BME280;8865;47.636;7.692;2022-07-29T09:01:27;98188.03;;;26.24;100.00
9474;BME280;8865;47.636;7.692;2022-07-29T09:03:55;98189.53;;;26.43;100.00
9474;BME280;8865;47.636;7.692;2022-07-29T09:06:23;98187.16;;;26.59;100.00
9474;BME280;8865;47.636;7.692;2022-07-29T09:08:55;98178.59;;;26.62;100.00
9474;BME280;8865;47.636;7.692;2022-07-29T09:11:24;98184.34;;;26.53;100.00
9474;BME280;8865;47.636;7.692;2022-07-29T09:13:50;98182.81;;;26.69;100.00
9474;BME280;8865;47.636;7.692;2022-07-29T09:16:16;98179.03;;;26.82;100.00
9474;BME280;8865;47.636;7.692;2022-07-29T09:18:45;98181.75;;;26.99;100.00
9474;BME280;8865;47.636;7.692;2022-07-29T09:21:16;98176.16;;;27.18;100.00
9474;BME280;8865;47.636;7.692;2022-07-29T09:24:02;98177.63;;;27.37;100.00
9474;BME280;8865;47.636;7.692;2022-07-29T09:26:32;98171.50;;;27.42;100.00
9474;BME280;8865;47.636;7.692;2022-07-29T09:28:59;98177.78;;;27.65;100.00
9474;BME280;8865;47.636;7.692;2022-07-29T09:31:45;98172.22;;;27.88;100.00
9474;BME280;8865;47.636;7.692;2022-07-29T09:34:13;98174.72;;;28.12;100.00
9474;BME280;8865;47.636;7.692;2022-07-29T09:36:42;98168.28;;;28.35;100.00
9474;BME280;8865;47.636;7.692;2022-07-29T09:39:09;98168.38;;;28.62;100.00
9474;BME280;8865;47.636;7.692;2022-07-29T09:41:46;98167.09;;;28.92;96.58
9474;BME280;8865;47.636;7.692;2022-07-29T09:44:12;98163.88;;;29.23;97.28
9474;BME280;8865;47.636;7.692;2022-07-29T09:46:38;98158.31;;;29.34;93.31
9474;BME280;8865;47.636;7.692;2022-07-29T09:49:09;98161.97;;;29.50;93.69
9474;BME280;8865;47.636;7.692;2022-07-29T09:51:35;98165.34;;;29.73;96.24
9474;BME280;8865;47.636;7.692;2022-07-29T09:54:23;98154.50;;;30.00;89.72
9474;BME280;8865;47.636;7.692;2022-07-29T09:56:49;98158.59;;;30.13;84.30
9474;BME280;8865;47.636;7.692;2022-07-29T09:59:16;98152.75;;;30.32;86.47
9474;BME280;8865;47.636;7.692;2022-07-29T10:01:42;98153.84;;;30.31;88.42
9474;BME280;8865;47.636;7.692;2022-07-29T10:04:08;98154.28;;;30.75;79.73
9474;BME280;8865;47.636;7.692;2022-07-29T10:06:55;98145.19;;;31.17;73.71
9474;BME280;8865;47.636;7.692;2022-07-29T10:09:21;98144.38;;;31.63;74.64
9474;BME280;8865;47.636;7.692;2022-07-29T10:12:03;98146.22;;;32.04;68.21
9474;BME280;8865;47.636;7.692;2022-07-29T10:14:33;98135.44;;;31.42;56.72
9474;BME280;8865;47.636;7.692;2022-07-29T10:17:00;98141.41;;;31.55;54.75
9474;BME280;8865;47.636;7.692;2022-07-29T10:19:31;98140.88;;;31.58;59.28
9474;BME280;8865;47.636;7.692;2022-07-29T10:21:58;98150.84;;;31.93;62.49
9474;BME280;8865;47.636;7.692;2022-07-29T10:24:29;98144.91;;;31.81;57.18
9474;BME280;8865;47.636;7.692;2022-07-29T10:26:57;98150.63;;;31.69;55.73
9474;BME280;8865;47.636;7.692;2022-07-29T10:29:24;98149.28;;;31.61;54.11
9474;BME280;8865;47.636;7.692;2022-07-29T10:34:44;98151.66;;;31.27;53.98
9474;BME280;8865;47.636;7.692;2022-07-29T10:43:24;98143.28;;;31.08;59.60
9474;BME280;8865;47.636;7.692;2022-07-29T10:45:56;98146.53;;;31.15;57.73
9474;BME280;8865;47.636;7.692;2022-07-29T10:48:23;98144.38;;;31.12;56.54
9474;BME280;8865;47.636;7.692;2022-07-29T10:51:03;98142.19;;;30.98;54.14
9474;BME280;8865;47.636;7.692;2022-07-29T10:56:29;98151.84;;;30.69;54.10
9474;BME280;8865;47.636;7.692;2022-07-29T11:01:47;98164.06;;;30.18;53.97
9474;BME280;8865;47.636;7.692;2022-07-29T11:04:14;98159.19;;;30.15;52.37
9474;BME280;8865;47.636;7.692;2022-07-29T11:09:28;98166.00;;;29.80;54.18
9474;BME280;8865;47.636;7.692;2022-07-29T11:11:59;98166.09;;;29.58;56.88
9474;BME280;8865;47.636;7.692;2022-07-29T11:14:59;98164.00;;;29.38;60.45
9474;BME280;8865;47.636;7.692;2022-07-29T11:17:27;98164.97;;;29.21;60.58
9474;BME280;8865;47.636;7.692;2022-07-29T11:22:57;98163.47;;;29.09;63.12
9474;BME280;8865;47.636;7.692;2022-07-29T11:25:24;98172.47;;;28.92;62.69
9474;BME280;8865;47.636;7.692;2022-07-29T11:27:52;98165.00;;;28.72;63.86
9474;BME280;8865;47.636;7.692;2022-07-29T11:30:20;98183.91;;;28.55;69.87
9474;BME280;8865;47.636;7.692;2022-07-29T11:32:46;98185.53;;;28.34;66.42
9474;BME280;8865;47.636;7.692;2022-07-29T11:35:20;98194.47;;;28.18;69.72
9474;BME280;8865;47.636;7.692;2022-07-29T11:43:58;98200.09;;;28.38;90.81
9474;BME280;8865;47.636;7.692;2022-07-29T11:49:09;98208.16;;;28.55;89.41
9474;BME280;8865;47.636;7.692;2022-07-29T11:51:37;98204.06;;;28.53;82.14
9474;BME280;8865;47.636;7.692;2022-07-29T11:54:08;98215.34;;;28.49;88.69
9474;BME280;8865;47.636;7.692;2022-07-29T11:56:38;98220.19;;;28.47;79.48
9474;BME280;8865;47.636;7.692;2022-07-29T11:59:09;98215.28;;;28.44;70.05
9474;BME280;8865;47.636;7.692;2022-07-29T12:01:36;98214.31;;;28.33;68.82
9474;BME280;8865;47.636;7.692;2022-07-29T12:04:06;98219.16;;;28.31;70.92
9474;BME280;8865;47.636;7.692;2022-07-29T12:06:35;98224.81;;;28.13;69.96
9474;BME280;8865;47.636;7.692;2022-07-29T12:09:08;98224.03;;;27.78;71.75
9474;BME280;8865;47.636;7.692;2022-07-29T12:11:36;98223.53;;;27.65;89.72
9474;BME280;8865;47.636;7.692;2022-07-29T12:14:02;98220.84;;;27.48;96.73
9474;BME280;8865;47.636;7.692;2022-07-29T12:16:35;98222.00;;;26.94;86.80
9474;BME280;8865;47.636;7.692;2022-07-29T12:19:03;98227.59;;;26.28;88.18
9474;BME280;8865;47.636;7.692;2022-07-29T12:24:15;98243.81;;;26.33;100.00
9474;BME280;8865;47.636;7.692;2022-07-29T12:26:55;98233.06;;;26.33;100.00
9474;BME280;8865;47.636;7.692;2022-07-29T12:29:22;98241.34;;;26.32;99.46
9474;BME280;8865;47.636;7.692;2022-07-29T12:31:53;98240.66;;;26.36;100.00
9474;BME280;8865;47.636;7.692;2022-07-29T12:34:22;98228.31;;;26.35;100.00
9474;BME280;8865;47.636;7.692;2022-07-29T12:36:49;98227.22;;;26.36;100.00
9474;BME280;8865;47.636;7.692;2022-07-29T12:39:16;98230.75;;;26.37;100.00
9474;BME280;8865;47.636;7.692;2022-07-29T12:41:43;98231.56;;;26.37;100.00
9474;BME280;8865;47.636;7.692;2022-07-29T12:44:10;98219.41;;;26.35;100.00
9474;BME280;8865;47.636;7.692;2022-07-29T12:46:37;98222.94;;;26.35;99.48
9474;BME280;8865;47.636;7.692;2022-07-29T12:49:03;98214.16;;;26.28;100.00
9474;BME280;8865;47.636;7.692;2022-07-29T12:51:31;98217.44;;;26.30;98.83
9474;BME280;8865;47.636;7.692;2022-07-29T12:54:09;98212.44;;;26.34;100.00
9474;BME280;8865;47.636;7.692;2022-07-29T12:56:43;98218.00;;;26.32;96.35
9474;BME280;8865;47.636;7.692;2022-07-29T12:59:19;98219.53;;;26.28;90.67
9474;BME280;8865;47.636;7.692;2022-07-29T13:01:47;98226.28;;;26.31;94.62
9474;BME280;8865;47.636;7.692;2022-07-29T13:04:56;98224.66;;;26.42;100.00
9474;BME280;8865;47.636;7.692;2022-07-29T13:07:29;98223.84;;;26.41;95.38
9474;BME280;8865;47.636;7.692;2022-07-29T13:10:13;98225.63;;;26.24;94.49
9474;BME280;8865;47.636;7.692;2022-07-29T13:13:13;98236.31;;;26.47;95.17
9474;BME280;8865;47.636;7.692;2022-07-29T13:15:45;98239.47;;;26.56;96.36
9474;BME280;8865;47.636;7.692;2022-07-29T13:18:34;98236.88;;;26.73;96.02
9474;BME280;8865;47.636;7.692;2022-07-29T13:21:13;98237.19;;;26.88;96.53
9474;BME280;8865;47.636;7.692;2022-07-29T13:23:39;98239.03;;;26.12;85.31
9474;BME280;8865;47.636;7.692;2022-07-29T13:26:10;98256.75;;;26.60;87.26
9474;BME280;8865;47.636;7.692;2022-07-29T13:28:42;98250.91;;;26.63;85.84
9474;BME280;8865;47.636;7.692;2022-07-29T13:31:08;98252.91;;;26.68;83.74
9474;BME280;8865;47.636;7.692;2022-07-29T13:33:36;98256.69;;;26.96;84.75
9474;BME280;8865;47.636;7.692;2022-07-29T13:36:03;98257.03;;;27.28;86.96
9474;BME280;8865;47.636;7.692;2022-07-29T13:38:29;98256.13;;;27.51;81.83
9474;BME280;8865;47.636;7.692;2022-07-29T13:40:55;98249.47;;;27.71;74.21
9474;BME280;8865;47.636;7.692;2022-07-29T13:43:21;98245.06;;;27.82;73.77
9474;BME280;8865;47.636;7.692;2022-07-29T13:45:47;98240.41;;;27.94;72.33
9474;BME280;8865;47.636;7.692;2022-07-29T13:48:13;98246.06;;;28.09;72.40
9474;BME280;8865;47.636;7.692;2022-07-29T13:50:39;98242.13;;;28.17;71.17
9474;BME280;8865;47.636;7.692;2022-07-29T13:53:05;98243.91;;;28.28;69.01
9474;BME280;8865;47.636;7.692;2022-07-29T13:55:32;98241.00;;;28.35;69.13
9474;BME280;8865;47.636;7.692;2022-07-29T13:57:58;98235.56;;;28.30;67.33
9474;BME280;8865;47.636;7.692;2022-07-29T14:00:24;98237.22;;;28.31;66.21
9474;BME280;8865;47.636;7.692;2022-07-29T14:02:50;98238.25;;;28.30;68.10
9474;BME280;8865;47.636;7.692;2022-07-29T14:05:16;98231.31;;;28.34;66.04
9474;BME280;8865;47.636;7.692;2022-07-29T14:07:42;98224.25;;;28.11;61.80
9474;BME280;8865;47.636;7.692;2022-07-29T14:10:09;98234.34;;;28.21;63.59
9474;BME280;8865;47.636;7.692;2022-07-29T14:12:35;98228.41;;;28.19;61.23